sensor_id;sensor_type;location;lat;lon;timestamp;P1;durP1;ratioP1;P2;durP2;ratioP2
4244;SDS011;2136;48.502;9.194;2024-01-10T00:00:14;46.40;;;21.77;;
4244;SDS011;2136;48.502;9.194;2024-01-10T00:02:41;47.25;;;23.35;;
4244;SDS011;2136;48.502;9.194;2024-01-10T00:05:08;50.35;;;22.65;;
4244;SDS011;2136;48.502;9.194;2024-01-10T00:07:35;53.45;;;22.85;;
4244;SDS011;2136;48.502;9.194;2024-01-10T00:10:02;49.90;;;22.65;;
4244;SDS011;2136;48.502;9.194;2024-01-10T00:12:29;43.10;;;24.42;;
4244;SDS011;2136;48.502;9.194;2024-01-10T00:15:01;43.05;;;22.58;;
4244;SDS011;2136;48.502;9.194;2024-01-10T00:17:28;46.78;;;21.80;;
4244;SDS011;2136;48.502;9.194;2024-01-10T00:19:55;47.28;;;23.83;;
4244;SDS011;2136;48.502;9.194;2024-01-10T00:22:22;48.65;;;22.42;;
4244;SDS011;2136;48.502;9.194;2024-01-10T00:24:49;44.78;;;21.00;;
4244;SDS011;2136;48.502;9.194;2024-01-10T00:27:16;56.83;;;21.67;;
4244;SDS011;2136;48.502;9.194;2024-01-10T00:29:42;48.35;;;23.98;;
4244;SDS011;2136;48.502;9.194;2024-01-10T00:32:10;38.22;;;20.52;;
4244;SDS011;2136;48.502;9.194;2024-01-10T00:34:37;41.70;;;22.13;;
4244;SDS011;2136;48.502;9.194;2024-01-10T00:37:04;53.50;;;23.27;;
4244;SDS011;2136;48.502;9.194;2024-01-10T00:39:31;48.35;;;21.75;;
4244;SDS011;2136;48.502;9.194;2024-01-10T00:41:58;47.30;;;21.90;;
4244;SDS011;2136;48.502;9.194;2024-01-10T00:44:24;46.33;;;21.40;;
4244;SDS011;2136;48.502;9.194;2024-01-10T00:46:51;40.75;;;21.05;;
4244;SDS011;2136;48.502;9.194;2024-01-10T00:49:19;41.00;;;21.63;;
4244;SDS011;2136;48.502;9.194;2024-01-10T00:51:46;44.22;;;21.90;;
4244;SDS011;2136;48.502;9.194;2024-01-10T00:54:13;46.70;;;22.15;;
4244;SDS011;2136;48.502;9.194;2024-01-10T00:56:40;44.90;;;23.00;;
4244;SDS011;2136;48.502;9.194;2024-01-10T00:59:06;40.50;;;19.65;;
4244;SDS011;2136;48.502;9.194;2024-01-10T01:01:33;45.72;;;22.92;;
4244;SDS011;2136;48.502;9.194;2024-01-10T01:04:00;49.15;;;20.90;;
4244;SDS011;2136;48.502;9.194;2024-01-10T01:06:28;44.05;;;21.65;;
4244;SDS011;2136;48.502;9.194;2024-01-10T01:08:55;40.75;;;20.60;;
4244;SDS011;2136;48.502;9.194;2024-01-10T01:11:23;47.42;;;21.70;;
4244;SDS011;2136;48.502;9.194;2024-01-10T01:13:50;45.90;;;21.75;;
4244;SDS011;2136;48.502;9.194;2024-01-10T01:16:17;51.05;;;20.95;;
4244;SDS011;2136;48.502;9.194;2024-01-10T01:18:44;42.22;;;21.65;;
4244;SDS011;2136;48.502;9.194;2024-01-10T01:21:10;40.47;;;20.60;;
4244;SDS011;2136;48.502;9.194;2024-01-10T01:23:39;48.50;;;22.00;;
4244;SDS011;2136;48.502;9.194;2024-01-10T01:26:06;41.95;;;21.67;;
4244;SDS011;2136;48.502;9.194;2024-01-10T01:28:32;41.40;;;20.77;;
4244;SDS011;2136;48.502;9.194;2024-01-10T01:31:00;43.88;;;21.60;;
4244;SDS011;2136;48.502;9.194;2024-01-10T01:33:26;40.28;;;20.45;;
4244;SDS011;2136;48.502;9.194;2024-01-10T01:35:53;39.60;;;20.70;;
4244;SDS011;2136;48.502;9.194;2024-01-10T01:38:20;39.35;;;19.60;;
4244;SDS011;2136;48.502;9.194;2024-01-10T01:40:48;40.55;;;20.73;;
4244;SDS011;2136;48.502;9.194;2024-01-10T01:43:18;42.85;;;20.70;;
4244;SDS011;2136;48.502;9.194;2024-01-10T01:45:46;36.17;;;18.48;;
4244;SDS011;2136;48.502;9.194;2024-01-10T01:48:16;40.13;;;19.88;;
4244;SDS011;2136;48.502;9.194;2024-01-10T01:50:43;37.10;;;18.58;;
4244;SDS011;2136;48.502;9.194;2024-01-10T01:53:11;37.97;;;18.67;;
4244;SDS011;2136;48.502;9.194;2024-01-10T01:55:39;34.95;;;17.85;;
4244;SDS011;2136;48.502;9.194;2024-01-10T01:58:07;34.80;;;18.23;;
4244;SDS011;2136;48.502;9.194;2024-01-10T02:00:34;34.15;;;18.83;;
4244;SDS011;2136;48.502;9.194;2024-01-10T02:03:03;37.97;;;18.73;;
4244;SDS011;2136;48.502;9.194;2024-01-10T02:05:31;33.35;;;18.40;;
4244;SDS011;2136;48.502;9.194;2024-01-10T02:07:58;37.88;;;18.65;;
4244;SDS011;2136;48.502;9.194;2024-01-10T02:10:25;35.20;;;18.27;;
4244;SDS011;2136;48.502;9.194;2024-01-10T02:12:52;34.55;;;19.20;;
4244;SDS011;2136;48.502;9.194;2024-01-10T02:15:20;41.50;;;20.42;;
4244;SDS011;2136;48.502;9.194;2024-01-10T02:17:47;38.10;;;18.15;;
4244;SDS011;2136;48.502;9.194;2024-01-10T02:20:14;43.88;;;18.60;;
4244;SDS011;2136;48.502;9.194;2024-01-10T02:22:42;37.08;;;20.02;;
4244;SDS011;2136;48.502;9.194;2024-01-10T02:25:11;38.13;;;16.80;;
4244;SDS011;2136;48.502;9.194;2024-01-10T02:27:38;42.83;;;20.65;;
4244;SDS011;2136;48.502;9.194;2024-01-10T02:30:06;37.15;;;19.63;;
4244;SDS011;2136;48.502;9.194;2024-01-10T02:32:35;32.85;;;17.08;;
4244;SDS011;2136;48.502;9.194;2024-01-10T02:35:02;33.15;;;16.50;;
4244;SDS011;2136;48.502;9.194;2024-01-10T02:37:29;33.13;;;16.92;;
4244;SDS011;2136;48.502;9.194;2024-01-10T02:39:56;34.22;;;17.40;;
4244;SDS011;2136;48.502;9.194;2024-01-10T02:42:24;36.13;;;17.02;;
4244;SDS011;2136;48.502;9.194;2024-01-10T02:44:52;35.10;;;16.40;;
4244;SDS011;2136;48.502;9.194;2024-01-10T02:47:18;34.88;;;17.80;;
4244;SDS011;2136;48.502;9.194;2024-01-10T02:49:45;39.15;;;16.38;;
4244;SDS011;2136;48.502;9.194;2024-01-10T02:52:12;31.33;;;15.82;;
4244;SDS011;2136;48.502;9.194;2024-01-10T02:54:39;35.50;;;17.50;;
4244;SDS011;2136;48.502;9.194;2024-01-10T02:57:06;32.47;;;16.25;;
4244;SDS011;2136;48.502;9.194;2024-01-10T02:59:34;36.97;;;18.23;;
4244;SDS011;2136;48.502;9.194;2024-01-10T03:02:01;40.05;;;19.90;;
4244;SDS011;2136;48.502;9.194;2024-01-10T03:04:28;38.90;;;19.55;;
4244;SDS011;2136;48.502;9.194;2024-01-10T03:06:55;32.30;;;17.85;;
4244;SDS011;2136;48.502;9.194;2024-01-10T03:09:22;47.35;;;20.70;;
4244;SDS011;2136;48.502;9.194;2024-01-10T03:11:49;38.40;;;19.27;;
4244;SDS011;2136;48.502;9.194;2024-01-10T03:14:16;35.75;;;17.85;;
4244;SDS011;2136;48.502;9.194;2024-01-10T03:16:44;37.90;;;17.48;;
4244;SDS011;2136;48.502;9.194;2024-01-10T03:19:11;34.65;;;16.42;;
4244;SDS011;2136;48.502;9.194;2024-01-10T03:21:38;37.88;;;16.33;;
4244;SDS011;2136;48.502;9.194;2024-01-10T03:24:05;29.10;;;16.30;;
4244;SDS011;2136;48.502;9.194;2024-01-10T03:26:32;38.67;;;17.63;;
4244;SDS011;2136;48.502;9.194;2024-01-10T03:28:59;42.60;;;19.15;;
4244;SDS011;2136;48.502;9.194;2024-01-10T03:31:27;33.40;;;17.23;;
4244;SDS011;2136;48.502;9.194;2024-01-10T03:33:56;30.92;;;15.27;;
4244;SDS011;2136;48.502;9.194;2024-01-10T03:36:24;34.13;;;16.10;;
4244;SDS011;2136;48.502;9.194;2024-01-10T03:38:51;32.58;;;17.08;;
4244;SDS011;2136;48.502;9.194;2024-01-10T03:41:18;35.38;;;18.40;;
4244;SDS011;2136;48.502;9.194;2024-01-10T03:43:46;32.15;;;17.55;;
4244;SDS011;2136;48.502;9.194;2024-01-10T03:46:13;37.70;;;18.85;;
4244;SDS011;2136;48.502;9.194;2024-01-10T03:48:41;39.15;;;19.52;;
4244;SDS011;2136;48.502;9.194;2024-01-10T03:51:14;38.78;;;18.58;;
4244;SDS011;2136;48.502;9.194;2024-01-10T03:53:41;44.58;;;19.27;;
4244;SDS011;2136;48.502;9.194;2024-01-10T03:56:08;36.28;;;18.25;;
4244;SDS011;2136;48.502;9.194;2024-01-10T03:58:35;30.73;;;17.20;;
4244;SDS011;2136;48.502;9.194;2024-01-10T04:01:03;39.05;;;18.80;;
4244;SDS011;2136;48.502;9.194;2024-01-10T04:03:31;31.30;;;16.55;;
4244;SDS011;2136;48.502;9.194;2024-01-10T04:05:58;31.15;;;16.67;;
4244;SDS011;2136;48.502;9.194;2024-01-10T04:08:26;30.02;;;16.60;;
4244;SDS011;2136;48.502;9.194;2024-01-10T04:10:53;35.05;;;17.90;;
4244;SDS011;2136;48.502;9.194;2024-01-10T04:13:20;26.98;;;15.13;;
4244;SDS011;2136;48.502;9.194;2024-01-10T04:15:47;36.55;;;18.00;;
4244;SDS011;2136;48.502;9.194;2024-01-10T04:18:14;33.42;;;17.10;;
4244;SDS011;2136;48.502;9.194;2024-01-10T04:20:41;33.22;;;17.30;;
4244;SDS011;2136;48.502;9.194;2024-01-10T04:23:09;40.75;;;16.98;;
4244;SDS011;2136;48.502;9.194;2024-01-10T04:25:37;31.65;;;16.15;;
4244;SDS011;2136;48.502;9.194;2024-01-10T04:28:04;33.67;;;16.98;;
4244;SDS011;2136;48.502;9.194;2024-01-10T04:30:31;36.45;;;18.42;;
4244;SDS011;2136;48.502;9.194;2024-01-10T04:32:58;47.92;;;20.27;;
4244;SDS011;2136;48.502;9.194;2024-01-10T04:35:25;41.50;;;21.25;;
4244;SDS011;2136;48.502;9.194;2024-01-10T04:37:52;44.00;;;20.90;;
4244;SDS011;2136;48.502;9.194;2024-01-10T04:40:18;37.45;;;18.38;;
4244;SDS011;2136;48.502;9.194;2024-01-10T04:42:47;34.08;;;17.55;;
4244;SDS011;2136;48.502;9.194;2024-01-10T04:45:14;39.63;;;16.95;;
4244;SDS011;2136;48.502;9.194;2024-01-10T04:47:41;31.00;;;16.55;;
4244;SDS011;2136;48.502;9.194;2024-01-10T04:50:10;39.88;;;18.25;;
4244;SDS011;2136;48.502;9.194;2024-01-10T04:52:37;38.38;;;18.52;;
4244;SDS011;2136;48.502;9.194;2024-01-10T04:55:04;36.00;;;17.23;;
4244;SDS011;2136;48.502;9.194;2024-01-10T04:57:33;31.90;;;16.35;;
4244;SDS011;2136;48.502;9.194;2024-01-10T05:00:01;39.83;;;18.77;;
4244;SDS011;2136;48.502;9.194;2024-01-10T05:02:28;37.97;;;17.67;;
4244;SDS011;2136;48.502;9.194;2024-01-10T05:04:55;38.65;;;18.10;;
4244;SDS011;2136;48.502;9.194;2024-01-10T05:07:22;31.10;;;15.85;;
4244;SDS011;2136;48.502;9.194;2024-01-10T05:09:48;43.70;;;21.13;;
4244;SDS011;2136;48.502;9.194;2024-01-10T05:12:15;40.97;;;18.73;;
4244;SDS011;2136;48.502;9.194;2024-01-10T05:14:43;36.85;;;17.60;;
4244;SDS011;2136;48.502;9.194;2024-01-10T05:17:11;37.40;;;17.60;;
4244;SDS011;2136;48.502;9.194;2024-01-10T05:19:38;31.77;;;16.67;;
4244;SDS011;2136;48.502;9.194;2024-01-10T05:22:05;40.85;;;18.05;;
4244;SDS011;2136;48.502;9.194;2024-01-10T05:24:32;31.70;;;16.95;;
4244;SDS011;2136;48.502;9.194;2024-01-10T05:26:58;34.72;;;18.88;;
4244;SDS011;2136;48.502;9.194;2024-01-10T05:29:25;33.25;;;18.00;;
4244;SDS011;2136;48.502;9.194;2024-01-10T05:31:52;41.00;;;20.48;;
4244;SDS011;2136;48.502;9.194;2024-01-10T05:34:20;40.03;;;18.45;;
4244;SDS011;2136;48.502;9.194;2024-01-10T05:36:47;41.00;;;19.25;;
4244;SDS011;2136;48.502;9.194;2024-01-10T05:39:14;36.97;;;20.30;;
4244;SDS011;2136;48.502;9.194;2024-01-10T05:41:41;38.88;;;18.92;;
4244;SDS011;2136;48.502;9.194;2024-01-10T05:44:09;39.30;;;19.90;;
4244;SDS011;2136;48.502;9.194;2024-01-10T05:46:36;38.30;;;18.80;;
4244;SDS011;2136;48.502;9.194;2024-01-10T05:49:02;41.92;;;19.73;;
4244;SDS011;2136;48.502;9.194;2024-01-10T05:51:32;38.50;;;19.35;;
4244;SDS011;2136;48.502;9.194;2024-01-10T05:53:58;37.13;;;19.90;;
4244;SDS011;2136;48.502;9.194;2024-01-10T05:56:25;32.42;;;17.95;;
4244;SDS011;2136;48.502;9.194;2024-01-10T05:58:53;44.15;;;22.38;;
4244;SDS011;2136;48.502;9.194;2024-01-10T06:01:19;38.28;;;21.85;;
4244;SDS011;2136;48.502;9.194;2024-01-10T06:03:46;38.92;;;18.92;;
4244;SDS011;2136;48.502;9.194;2024-01-10T06:06:13;45.28;;;19.90;;
4244;SDS011;2136;48.502;9.194;2024-01-10T06:08:41;34.25;;;17.95;;
4244;SDS011;2136;48.502;9.194;2024-01-10T06:11:08;32.72;;;17.73;;
4244;SDS011;2136;48.502;9.194;2024-01-10T06:13:34;32.72;;;17.67;;
4244;SDS011;2136;48.502;9.194;2024-01-10T06:16:01;41.90;;;20.48;;
4244;SDS011;2136;48.502;9.194;2024-01-10T06:18:28;43.95;;;20.55;;
4244;SDS011;2136;48.502;9.194;2024-01-10T06:20:55;34.80;;;18.40;;
4244;SDS011;2136;48.502;9.194;2024-01-10T06:23:23;36.08;;;18.25;;
4244;SDS011;2136;48.502;9.194;2024-01-10T06:25:51;37.03;;;19.00;;
4244;SDS011;2136;48.502;9.194;2024-01-10T06:28:19;34.30;;;18.70;;
4244;SDS011;2136;48.502;9.194;2024-01-10T06:30:46;44.15;;;19.77;;
4244;SDS011;2136;48.502;9.194;2024-01-10T06:33:13;36.83;;;19.42;;
4244;SDS011;2136;48.502;9.194;2024-01-10T06:35:40;36.47;;;18.80;;
4244;SDS011;2136;48.502;9.194;2024-01-10T06:38:08;41.13;;;21.10;;
4244;SDS011;2136;48.502;9.194;2024-01-10T06:40:35;48.75;;;21.35;;
4244;SDS011;2136;48.502;9.194;2024-01-10T06:43:04;52.83;;;24.83;;
4244;SDS011;2136;48.502;9.194;2024-01-10T06:45:33;41.45;;;19.38;;
4244;SDS011;2136;48.502;9.194;2024-01-10T06:48:00;37.55;;;20.02;;
4244;SDS011;2136;48.502;9.194;2024-01-10T06:50:27;38.13;;;20.45;;
4244;SDS011;2136;48.502;9.194;2024-01-10T06:52:55;43.35;;;20.58;;
4244;SDS011;2136;48.502;9.194;2024-01-10T06:55:22;40.13;;;20.23;;
4244;SDS011;2136;48.502;9.194;2024-01-10T06:57:51;49.25;;;22.02;;
4244;SDS011;2136;48.502;9.194;2024-01-10T07:00:20;42.63;;;20.33;;
4244;SDS011;2136;48.502;9.194;2024-01-10T07:02:47;40.05;;;21.30;;
4244;SDS011;2136;48.502;9.194;2024-01-10T07:05:15;39.22;;;21.63;;
4244;SDS011;2136;48.502;9.194;2024-01-10T07:07:42;43.25;;;20.38;;
4244;SDS011;2136;48.502;9.194;2024-01-10T07:10:09;41.42;;;20.77;;
4244;SDS011;2136;48.502;9.194;2024-01-10T07:12:36;39.17;;;19.90;;
4244;SDS011;2136;48.502;9.194;2024-01-10T07:15:04;39.15;;;20.77;;
4244;SDS011;2136;48.502;9.194;2024-01-10T07:17:33;43.92;;;21.58;;
4244;SDS011;2136;48.502;9.194;2024-01-10T07:20:00;39.13;;;21.10;;
4244;SDS011;2136;48.502;9.194;2024-01-10T07:22:28;43.45;;;21.00;;
4244;SDS011;2136;48.502;9.194;2024-01-10T07:24:55;42.20;;;21.08;;
4244;SDS011;2136;48.502;9.194;2024-01-10T07:27:22;41.40;;;20.05;;
4244;SDS011;2136;48.502;9.194;2024-01-10T07:29:49;38.85;;;19.10;;
4244;SDS011;2136;48.502;9.194;2024-01-10T07:32:16;39.97;;;20.08;;
4244;SDS011;2136;48.502;9.194;2024-01-10T07:34:46;40.05;;;20.90;;
4244;SDS011;2136;48.502;9.194;2024-01-10T07:37:13;44.75;;;22.02;;
4244;SDS011;2136;48.502;9.194;2024-01-10T07:39:42;37.63;;;22.08;;
4244;SDS011;2136;48.502;9.194;2024-01-10T07:42:09;47.03;;;24.52;;
4244;SDS011;2136;48.502;9.194;2024-01-10T07:44:36;49.03;;;23.17;;
4244;SDS011;2136;48.502;9.194;2024-01-10T07:47:07;46.67;;;23.30;;
4244;SDS011;2136;48.502;9.194;2024-01-10T07:49:37;42.70;;;22.83;;
4244;SDS011;2136;48.502;9.194;2024-01-10T07:52:07;41.20;;;21.83;;
4244;SDS011;2136;48.502;9.194;2024-01-10T07:54:35;44.30;;;20.60;;
4244;SDS011;2136;48.502;9.194;2024-01-10T07:57:02;42.83;;;22.98;;
4244;SDS011;2136;48.502;9.194;2024-01-10T07:59:32;45.17;;;22.15;;
4244;SDS011;2136;48.502;9.194;2024-01-10T08:02:01;41.70;;;21.55;;
4244;SDS011;2136;48.502;9.194;2024-01-10T08:04:28;35.58;;;21.15;;
4244;SDS011;2136;48.502;9.194;2024-01-10T08:06:56;40.47;;;21.38;;
4244;SDS011;2136;48.502;9.194;2024-01-10T08:09:33;41.72;;;21.63;;
4244;SDS011;2136;48.502;9.194;2024-01-10T08:12:02;41.05;;;22.90;;
4244;SDS011;2136;48.502;9.194;2024-01-10T08:14:34;44.88;;;20.77;;
4244;SDS011;2136;48.502;9.194;2024-01-10T08:17:03;45.70;;;22.08;;
4244;SDS011;2136;48.502;9.194;2024-01-10T08:19:32;43.80;;;20.02;;
4244;SDS011;2136;48.502;9.194;2024-01-10T08:22:01;48.10;;;22.95;;
4244;SDS011;2136;48.502;9.194;2024-01-10T08:24:40;42.60;;;21.25;;
4244;SDS011;2136;48.502;9.194;2024-01-10T08:27:10;37.97;;;20.20;;
4244;SDS011;2136;48.502;9.194;2024-01-10T08:29:37;44.47;;;23.40;;
4244;SDS011;2136;48.502;9.194;2024-01-10T08:32:05;43.30;;;20.90;;
4244;SDS011;2136;48.502;9.194;2024-01-10T08:34:33;42.03;;;20.95;;
4244;SDS011;2136;48.502;9.194;2024-01-10T08:37:03;45.38;;;22.55;;
4244;SDS011;2136;48.502;9.194;2024-01-10T08:39:37;45.90;;;22.58;;
4244;SDS011;2136;48.502;9.194;2024-01-10T08:42:08;44.35;;;19.58;;
4244;SDS011;2136;48.502;9.194;2024-01-10T08:44:39;35.42;;;20.02;;
4244;SDS011;2136;48.502;9.194;2024-01-10T08:47:06;42.03;;;21.58;;
4244;SDS011;2136;48.502;9.194;2024-01-10T08:49:35;41.38;;;21.38;;
4244;SDS011;2136;48.502;9.194;2024-01-10T08:52:05;38.97;;;19.95;;
4244;SDS011;2136;48.502;9.194;2024-01-10T08:54:38;48.45;;;23.63;;
4244;SDS011;2136;48.502;9.194;2024-01-10T08:57:06;35.72;;;20.25;;
4244;SDS011;2136;48.502;9.194;2024-01-10T08:59:41;42.05;;;21.23;;
4244;SDS011;2136;48.502;9.194;2024-01-10T09:02:08;39.45;;;21.45;;
4244;SDS011;2136;48.502;9.194;2024-01-10T09:04:35;43.13;;;22.73;;
4244;SDS011;2136;48.502;9.194;2024-01-10T09:07:03;42.25;;;21.65;;
4244;SDS011;2136;48.502;9.194;2024-01-10T09:09:32;42.95;;;20.13;;
4244;SDS011;2136;48.502;9.194;2024-01-10T09:12:04;40.63;;;20.58;;
4244;SDS011;2136;48.502;9.194;2024-01-10T09:14:32;45.15;;;24.23;;
4244;SDS011;2136;48.502;9.194;2024-01-10T09:17:00;47.92;;;24.92;;
4244;SDS011;2136;48.502;9.194;2024-01-10T09:19:29;43.63;;;23.02;;
4244;SDS011;2136;48.502;9.194;2024-01-10T09:21:57;49.78;;;22.52;;
4244;SDS011;2136;48.502;9.194;2024-01-10T09:24:26;43.30;;;22.65;;
4244;SDS011;2136;48.502;9.194;2024-01-10T09:26:54;50.30;;;24.80;;
4244;SDS011;2136;48.502;9.194;2024-01-10T09:29:23;40.80;;;21.02;;
4244;SDS011;2136;48.502;9.194;2024-01-10T09:31:50;47.40;;;23.42;;
4244;SDS011;2136;48.502;9.194;2024-01-10T09:34:17;66.35;;;24.88;;
4244;SDS011;2136;48.502;9.194;2024-01-10T09:36:44;39.72;;;22.08;;
4244;SDS011;2136;48.502;9.194;2024-01-10T09:39:11;42.50;;;22.70;;
4244;SDS011;2136;48.502;9.194;2024-01-10T09:41:40;46.15;;;23.90;;
4244;SDS011;2136;48.502;9.194;2024-01-10T09:44:12;39.83;;;20.60;;
4244;SDS011;2136;48.502;9.194;2024-01-10T09:46:41;46.00;;;23.60;;
4244;SDS011;2136;48.502;9.194;2024-01-10T09:49:12;41.60;;;21.30;;
4244;SDS011;2136;48.502;9.194;2024-01-10T09:51:38;50.07;;;22.37;;
4244;SDS011;2136;48.502;9.194;2024-01-10T09:54:05;42.95;;;22.45;;
4244;SDS011;2136;48.502;9.194;2024-01-10T09:56:32;42.03;;;21.65;;
4244;SDS011;2136;48.502;9.194;2024-01-10T09:59:00;42.78;;;22.92;;
4244;SDS011;2136;48.502;9.194;2024-01-10T10:01:29;46.95;;;22.85;;
4244;SDS011;2136;48.502;9.194;2024-01-10T10:03:58;40.80;;;20.00;;
4244;SDS011;2136;48.502;9.194;2024-01-10T10:06:27;43.70;;;22.77;;
4244;SDS011;2136;48.502;9.194;2024-01-10T10:08:54;41.00;;;21.17;;
4244;SDS011;2136;48.502;9.194;2024-01-10T10:11:21;45.27;;;23.17;;
4244;SDS011;2136;48.502;9.194;2024-01-10T10:13:48;39.80;;;22.40;;
4244;SDS011;2136;48.502;9.194;2024-01-10T10:16:14;45.10;;;22.38;;
4244;SDS011;2136;48.502;9.194;2024-01-10T10:18:50;43.60;;;22.70;;
4244;SDS011;2136;48.502;9.194;2024-01-10T10:21:19;42.03;;;23.40;;
4244;SDS011;2136;48.502;9.194;2024-01-10T10:23:57;40.35;;;20.98;;
4244;SDS011;2136;48.502;9.194;2024-01-10T10:26:25;41.37;;;21.37;;
4244;SDS011;2136;48.502;9.194;2024-01-10T10:28:54;39.87;;;19.70;;
4244;SDS011;2136;48.502;9.194;2024-01-10T10:31:21;48.07;;;19.97;;
4244;SDS011;2136;48.502;9.194;2024-01-10T10:33:49;40.40;;;21.50;;
4244;SDS011;2136;48.502;9.194;2024-01-10T10:36:16;33.60;;;20.10;;
4244;SDS011;2136;48.502;9.194;2024-01-10T10:38:45;39.03;;;21.20;;
4244;SDS011;2136;48.502;9.194;2024-01-10T10:41:13;40.03;;;21.63;;
4244;SDS011;2136;48.502;9.194;2024-01-10T10:43:40;37.57;;;20.90;;
4244;SDS011;2136;48.502;9.194;2024-01-10T10:46:08;45.70;;;22.90;;
4244;SDS011;2136;48.502;9.194;2024-01-10T10:48:37;47.70;;;21.63;;
4244;SDS011;2136;48.502;9.194;2024-01-10T10:51:05;38.77;;;19.07;;
4244;SDS011;2136;48.502;9.194;2024-01-10T10:53:34;35.50;;;19.87;;
4244;SDS011;2136;48.502;9.194;2024-01-10T10:56:03;39.80;;;20.40;;
4244;SDS011;2136;48.502;9.194;2024-01-10T10:58:33;35.17;;;19.60;;
4244;SDS011;2136;48.502;9.194;2024-01-10T11:01:03;35.70;;;19.13;;
4244;SDS011;2136;48.502;9.194;2024-01-10T11:03:31;34.63;;;19.80;;
4244;SDS011;2136;48.502;9.194;2024-01-10T11:06:02;30.33;;;17.37;;
4244;SDS011;2136;48.502;9.194;2024-01-10T11:08:30;34.17;;;19.97;;
4244;SDS011;2136;48.502;9.194;2024-01-10T11:11:00;34.17;;;19.60;;
4244;SDS011;2136;48.502;9.194;2024-01-10T11:13:45;36.43;;;18.80;;
4244;SDS011;2136;48.502;9.194;2024-01-10T11:19:30;35.67;;;21.20;;
4244;SDS011;2136;48.502;9.194;2024-01-10T11:22:21;33.77;;;18.67;;
4244;SDS011;2136;48.502;9.194;2024-01-10T11:25:00;36.90;;;19.47;;
4244;SDS011;2136;48.502;9.194;2024-01-10T11:27:29;33.70;;;21.23;;
4244;SDS011;2136;48.502;9.194;2024-01-10T11:29:56;31.27;;;18.70;;
4244;SDS011;2136;48.502;9.194;2024-01-10T11:32:24;31.67;;;19.90;;
4244;SDS011;2136;48.502;9.194;2024-01-10T11:34:54;38.60;;;20.83;;
4244;SDS011;2136;48.502;9.194;2024-01-10T11:37:21;32.17;;;20.67;;
4244;SDS011;2136;48.502;9.194;2024-01-10T11:39:50;30.83;;;20.30;;
4244;SDS011;2136;48.502;9.194;2024-01-10T11:42:21;30.43;;;19.93;;
4244;SDS011;2136;48.502;9.194;2024-01-10T11:44:50;31.70;;;20.00;;
4244;SDS011;2136;48.502;9.194;2024-01-10T11:47:19;33.43;;;21.47;;
4244;SDS011;2136;48.502;9.194;2024-01-10T11:49:55;32.60;;;21.23;;
4244;SDS011;2136;48.502;9.194;2024-01-10T11:52:23;43.87;;;25.37;;
4244;SDS011;2136;48.502;9.194;2024-01-10T11:54:57;37.33;;;22.90;;
4244;SDS011;2136;48.502;9.194;2024-01-10T11:57:25;34.87;;;20.60;;
4244;SDS011;2136;48.502;9.194;2024-01-10T11:59:55;38.63;;;22.43;;
4244;SDS011;2136;48.502;9.194;2024-01-10T12:02:25;35.83;;;21.13;;
4244;SDS011;2136;48.502;9.194;2024-01-10T12:04:53;33.93;;;21.57;;
4244;SDS011;2136;48.502;9.194;2024-01-10T12:07:20;35.60;;;21.43;;
4244;SDS011;2136;48.502;9.194;2024-01-10T12:09:48;41.97;;;22.67;;
4244;SDS011;2136;48.502;9.194;2024-01-10T12:12:16;43.57;;;22.10;;
4244;SDS011;2136;48.502;9.194;2024-01-10T12:14:43;39.60;;;22.30;;
4244;SDS011;2136;48.502;9.194;2024-01-10T12:17:12;34.50;;;20.83;;
4244;SDS011;2136;48.502;9.194;2024-01-10T12:19:39;40.97;;;22.60;;
4244;SDS011;2136;48.502;9.194;2024-01-10T12:22:07;39.67;;;22.90;;
4244;SDS011;2136;48.502;9.194;2024-01-10T12:24:38;37.17;;;20.33;;
4244;SDS011;2136;48.502;9.194;2024-01-10T12:27:10;41.20;;;21.60;;
4244;SDS011;2136;48.502;9.194;2024-01-10T12:29:37;40.57;;;21.70;;
4244;SDS011;2136;48.502;9.194;2024-01-10T12:32:04;47.53;;;22.30;;
4244;SDS011;2136;48.502;9.194;2024-01-10T12:34:38;44.00;;;22.87;;
4244;SDS011;2136;48.502;9.194;2024-01-10T12:37:05;39.07;;;20.77;;
4244;SDS011;2136;48.502;9.194;2024-01-10T12:39:32;34.20;;;21.40;;
4244;SDS011;2136;48.502;9.194;2024-01-10T12:41:59;47.50;;;20.63;;
4244;SDS011;2136;48.502;9.194;2024-01-10T12:44:27;42.30;;;23.10;;
4244;SDS011;2136;48.502;9.194;2024-01-10T12:46:56;52.60;;;24.20;;
4244;SDS011;2136;48.502;9.194;2024-01-10T12:49:23;43.70;;;22.70;;
4244;SDS011;2136;48.502;9.194;2024-01-10T12:51:51;36.80;;;21.63;;
4244;SDS011;2136;48.502;9.194;2024-01-10T12:54:18;43.00;;;23.83;;
4244;SDS011;2136;48.502;9.194;2024-01-10T12:56:45;39.83;;;21.57;;
4244;SDS011;2136;48.502;9.194;2024-01-10T12:59:12;35.10;;;20.67;;
4244;SDS011;2136;48.502;9.194;2024-01-10T13:01:39;43.27;;;22.40;;
4244;SDS011;2136;48.502;9.194;2024-01-10T13:04:06;49.40;;;24.13;;
4244;SDS011;2136;48.502;9.194;2024-01-10T13:06:33;41.40;;;21.67;;
4244;SDS011;2136;48.502;9.194;2024-01-10T13:09:01;41.17;;;21.93;;
4244;SDS011;2136;48.502;9.194;2024-01-10T13:11:28;41.10;;;21.13;;
4244;SDS011;2136;48.502;9.194;2024-01-10T13:13:56;37.50;;;22.20;;
4244;SDS011;2136;48.502;9.194;2024-01-10T13:16:23;42.27;;;22.87;;
4244;SDS011;2136;48.502;9.194;2024-01-10T13:18:50;38.70;;;21.87;;
4244;SDS011;2136;48.502;9.194;2024-01-10T13:21:18;39.63;;;20.80;;
4244;SDS011;2136;48.502;9.194;2024-01-10T13:23:45;38.67;;;21.03;;
4244;SDS011;2136;48.502;9.194;2024-01-10T13:26:13;38.67;;;21.17;;
4244;SDS011;2136;48.502;9.194;2024-01-10T13:28:40;39.90;;;21.47;;
4244;SDS011;2136;48.502;9.194;2024-01-10T13:31:07;41.90;;;22.50;;
4244;SDS011;2136;48.502;9.194;2024-01-10T13:33:34;38.27;;;20.13;;
4244;SDS011;2136;48.502;9.194;2024-01-10T13:36:02;40.90;;;20.97;;
4244;SDS011;2136;48.502;9.194;2024-01-10T13:38:29;45.50;;;21.47;;
4244;SDS011;2136;48.502;9.194;2024-01-10T13:40:56;44.80;;;20.37;;
4244;SDS011;2136;48.502;9.194;2024-01-10T13:43:24;36.93;;;19.90;;
4244;SDS011;2136;48.502;9.194;2024-01-10T13:45:51;38.53;;;20.10;;
4244;SDS011;2136;48.502;9.194;2024-01-10T13:48:19;31.53;;;20.77;;
4244;SDS011;2136;48.502;9.194;2024-01-10T13:50:45;40.87;;;21.50;;
4244;SDS011;2136;48.502;9.194;2024-01-10T13:53:13;37.37;;;21.90;;
4244;SDS011;2136;48.502;9.194;2024-01-10T13:55:40;35.57;;;19.40;;
4244;SDS011;2136;48.502;9.194;2024-01-10T13:58:07;35.90;;;21.77;;
4244;SDS011;2136;48.502;9.194;2024-01-10T14:00:36;37.40;;;20.83;;
4244;SDS011;2136;48.502;9.194;2024-01-10T14:03:04;35.83;;;20.27;;
4244;SDS011;2136;48.502;9.194;2024-01-10T14:05:30;42.40;;;22.70;;
4244;SDS011;2136;48.502;9.194;2024-01-10T14:07:57;36.60;;;19.90;;
4244;SDS011;2136;48.502;9.194;2024-01-10T14:10:25;32.37;;;20.80;;
4244;SDS011;2136;48.502;9.194;2024-01-10T14:12:51;39.10;;;19.93;;
4244;SDS011;2136;48.502;9.194;2024-01-10T14:15:18;40.63;;;21.77;;
4244;SDS011;2136;48.502;9.194;2024-01-10T14:17:47;39.07;;;22.70;;
4244;SDS011;2136;48.502;9.194;2024-01-10T14:20:14;38.40;;;19.73;;
4244;SDS011;2136;48.502;9.194;2024-01-10T14:22:41;38.87;;;20.70;;
4244;SDS011;2136;48.502;9.194;2024-01-10T14:25:08;39.80;;;20.97;;
4244;SDS011;2136;48.502;9.194;2024-01-10T14:27:36;39.47;;;21.50;;
4244;SDS011;2136;48.502;9.194;2024-01-10T14:30:05;37.57;;;21.23;;
4244;SDS011;2136;48.502;9.194;2024-01-10T14:32:34;41.73;;;21.67;;
4244;SDS011;2136;48.502;9.194;2024-01-10T14:35:03;39.90;;;21.97;;
4244;SDS011;2136;48.502;9.194;2024-01-10T14:37:30;41.93;;;22.27;;
4244;SDS011;2136;48.502;9.194;2024-01-10T14:40:00;45.33;;;22.53;;
4244;SDS011;2136;48.502;9.194;2024-01-10T14:42:27;45.77;;;24.50;;
4244;SDS011;2136;48.502;9.194;2024-01-10T14:44:54;52.57;;;24.17;;
4244;SDS011;2136;48.502;9.194;2024-01-10T14:47:21;43.63;;;23.57;;
4244;SDS011;2136;48.502;9.194;2024-01-10T14:49:48;41.00;;;23.57;;
4244;SDS011;2136;48.502;9.194;2024-01-10T14:52:16;45.40;;;23.47;;
4244;SDS011;2136;48.502;9.194;2024-01-10T14:54:43;42.73;;;22.60;;